Time;durP1;ratioP1;P1;durP2;ratioP2;P2;SDS_P1;SDS_P2;PMS_P1;PMS_P2;Temp;Humidity;BMP_temperature;BMP_pressure;BME280_temperature;BME280_humidity;BME280_pressure;Samples;Min_cycle;Max_cycle;Signal;HPM_P1;HPM_P2
2022/09/14 00:00:14;;;;;;;2.40;2.20;;;;;;;;;;4970302;28;20240;-54
2022/09/14 00:02:40;;;;;;;2.30;2.10;;;;;;;;;;4968460;28;20658;-53
2022/09/14 00:05:06;;;;;;;2.40;2.20;;;;;;;;;;4973018;28;20249;-54
2022/09/14 00:07:32;;;;;;;3.97;2.47;;;;;;;;;;4969417;28;20198;-55
2022/09/14 00:09:58;;;;;;;2.90;2.20;;;;;;;;;;4969145;28;20176;-54
2022/09/14 00:12:24;;;;;;;1.97;1.87;;;;;;;;;;4977022;28;20193;-54
2022/09/14 00:14:50;;;;;;;3.17;2.30;;;;;;;;;;4976452;28;20580;-54
2022/09/14 00:17:17;;;;;;;2.83;2.20;;;;;;;;;;4975110;28;20564;-54
2022/09/14 00:19:43;;;;;;;3.03;2.50;;;;;;;;;;4963631;28;20786;-54
2022/09/14 00:22:10;;;;;;;4.80;2.17;;;;;;;;;;4983373;28;20260;-53
2022/09/14 00:24:36;;;;;;;2.70;1.90;;;;;;;;;;4971879;28;20188;-53
2022/09/14 00:27:03;;;;;;;2.13;1.90;;;;;;;;;;4976398;28;20204;-54
2022/09/14 00:29:29;;;;;;;3.67;2.40;;;;;;;;;;4980308;28;20554;-54
2022/09/14 00:31:56;;;;;;;2.20;2.00;;;;;;;;;;4970186;28;20190;-54
2022/09/14 00:34:22;;;;;;;2.60;2.40;;;;;;;;;;4966741;28;20192;-54
2022/09/14 00:36:49;;;;;;;2.43;2.10;;;;;;;;;;4974049;28;20202;-54
2022/09/14 00:39:16;;;;;;;4.03;2.60;;;;;;;;;;4979167;28;20259;-55
2022/09/14 00:41:43;;;;;;;2.93;2.30;;;;;;;;;;4974645;28;20308;-54
2022/09/14 00:44:09;;;;;;;3.93;2.60;;;;;;;;;;4974107;28;20333;-54
2022/09/14 00:46:37;;;;;;;2.40;2.07;;;;;;;;;;4970689;28;20296;-55
2022/09/14 00:49:05;;;;;;;5.43;2.23;;;;;;;;;;4973378;28;20591;-54
2022/09/14 00:51:32;;;;;;;2.73;2.33;;;;;;;;;;4989560;28;20282;-54
2022/09/14 00:53:58;;;;;;;2.20;2.00;;;;;;;;;;4976898;28;20205;-54
2022/09/14 00:56:25;;;;;;;1.80;1.70;;;;;;;;;;4974727;28;20267;-54
2022/09/14 00:58:52;;;;;;;3.57;2.30;;;;;;;;;;4996036;28;20189;-54
2022/09/14 01:01:18;;;;;;;2.40;2.20;;;;;;;;;;4978444;28;20543;-54
2022/09/14 01:03:44;;;;;;;5.07;2.53;;;;;;;;;;4967658;28;20241;-54
2022/09/14 01:06:31;;;;;;;2.27;2.07;;;;;;;;;;4960749;28;20438;-54
2022/09/14 01:08:57;;;;;;;4.50;2.50;;;;;;;;;;4972248;28;20614;-54
2022/09/14 01:11:26;;;;;;;4.10;2.20;;;;;;;;;;4976890;28;20645;-54
2022/09/14 01:14:01;;;;;;;2.37;2.10;;;;;;;;;;4988019;28;20182;-54
2022/09/14 01:16:33;;;;;;;2.47;2.27;;;;;;;;;;4978716;28;20181;-54
2022/09/14 01:19:01;;;;;;;2.20;2.00;;;;;;;;;;4972436;28;20175;-54
2022/09/14 01:21:32;;;;;;;3.67;2.00;;;;;;;;;;4975083;28;20865;-54
2022/09/14 01:24:10;;;;;;;2.50;2.30;;;;;;;;;;4958383;28;20181;-54
2022/09/14 01:26:55;;;;;;;2.63;2.00;;;;;;;;;;4975953;28;20601;-54
2022/09/14 01:29:27;;;;;;;3.53;2.20;;;;;;;;;;4979348;28;20646;-54
2022/09/14 01:31:56;;;;;;;2.57;2.13;;;;;;;;;;4974837;28;20246;-54
2022/09/14 01:34:30;;;;;;;4.20;2.20;;;;;;;;;;4970420;28;20544;-54
2022/09/14 01:37:11;;;;;;;3.63;2.33;;;;;;;;;;4972137;28;20193;-54
2022/09/14 01:39:39;;;;;;;3.23;2.10;;;;;;;;;;4975311;28;20186;-53
2022/09/14 01:42:05;;;;;;;2.17;2.00;;;;;;;;;;4947196;28;20282;-54
2022/09/14 01:44:36;;;;;;;3.83;2.10;;;;;;;;;;4980791;28;20639;-53
2022/09/14 01:47:06;;;;;;;4.47;2.20;;;;;;;;;;4972433;28;20191;-54
2022/09/14 01:49:36;;;;;;;2.07;1.87;;;;;;;;;;4957076;28;20182;-54
2022/09/14 01:52:09;;;;;;;2.30;1.90;;;;;;;;;;4984389;28;20180;-55
2022/09/14 01:54:54;;;;;;;3.00;2.03;;;;;;;;;;4974440;28;20188;-54
2022/09/14 01:57:20;;;;;;;2.70;2.10;;;;;;;;;;4976841;28;20904;-54
2022/09/14 01:59:47;;;;;;;2.80;2.30;;;;;;;;;;4975377;28;20184;-55
2022/09/14 02:02:13;;;;;;;2.83;1.90;;;;;;;;;;4957195;28;20727;-54
2022/09/14 02:04:53;;;;;;;3.27;2.10;;;;;;;;;;4975733;28;20187;-54
2022/09/14 02:07:19;;;;;;;3.23;2.07;;;;;;;;;;4949801;28;20189;-54
2022/09/14 02:09:47;;;;;;;2.87;2.30;;;;;;;;;;4958444;28;20535;-55
2022/09/14 02:12:13;;;;;;;3.33;2.73;;;;;;;;;;4957036;28;20192;-54
2022/09/14 02:14:39;;;;;;;3.97;2.30;;;;;;;;;;4953000;28;20244;-54
2022/09/14 02:17:07;;;;;;;2.67;2.30;;;;;;;;;;4949985;28;20197;-54
2022/09/14 02:19:37;;;;;;;2.00;1.70;;;;;;;;;;4958643;28;20238;-54
2022/09/14 02:22:03;;;;;;;4.00;2.47;;;;;;;;;;4952386;28;20212;-55
2022/09/14 02:24:29;;;;;;;3.40;2.20;;;;;;;;;;4954266;28;20187;-54
2022/09/14 02:26:57;;;;;;;3.20;1.93;;;;;;;;;;4956901;28;20196;-54
2022/09/14 02:29:23;;;;;;;3.00;2.27;;;;;;;;;;4953259;28;20822;-57
2022/09/14 02:31:56;;;;;;;5.03;2.47;;;;;;;;;;4964005;28;20180;-54
2022/09/14 02:34:43;;;;;;;2.60;2.13;;;;;;;;;;4951426;28;20586;-54
2022/09/14 02:37:12;;;;;;;3.53;2.20;;;;;;;;;;4950567;28;20191;-54
2022/09/14 02:39:38;;;;;;;3.43;2.37;;;;;;;;;;4953421;28;20700;-54
2022/09/14 02:42:23;;;;;;;4.03;1.67;;;;;;;;;;4961714;28;20212;-53
2022/09/14 02:45:13;;;;;;;2.70;1.80;;;;;;;;;;4949315;28;21959;-54
2022/09/14 02:47:44;;;;;;;3.10;2.10;;;;;;;;;;4954131;28;20229;-54
2022/09/14 02:50:21;;;;;;;2.70;2.40;;;;;;;;;;4966097;28;20655;-53
2022/09/14 02:52:54;;;;;;;2.10;1.90;;;;;;;;;;4955216;28;20187;-54
2022/09/14 02:55:21;;;;;;;4.30;2.10;;;;;;;;;;4953810;28;20883;-54
2022/09/14 02:58:08;;;;;;;2.13;1.93;;;;;;;;;;4950260;28;20181;-54
2022/09/14 03:00:36;;;;;;;2.50;1.90;;;;;;;;;;4936845;28;20188;-54
2022/09/14 03:03:03;;;;;;;3.77;2.03;;;;;;;;;;4958233;28;20197;-54
2022/09/14 03:05:29;;;;;;;3.43;2.73;;;;;;;;;;4963787;28;20242;-53
2022/09/14 03:07:56;;;;;;;4.17;2.00;;;;;;;;;;4974967;28;20659;-54
2022/09/14 03:10:22;;;;;;;2.33;2.07;;;;;;;;;;4974879;28;20600;-54
2022/09/14 03:12:48;;;;;;;2.70;2.17;;;;;;;;;;4971383;28;20664;-55
2022/09/14 03:15:14;;;;;;;4.53;2.27;;;;;;;;;;4969946;28;20274;-54
2022/09/14 03:17:44;;;;;;;2.50;2.30;;;;;;;;;;4977937;28;20693;-55
2022/09/14 03:20:10;;;;;;;2.60;1.83;;;;;;;;;;4972012;28;20526;-54
2022/09/14 03:22:36;;;;;;;6.33;2.30;;;;;;;;;;4966983;28;20565;-54
2022/09/14 03:25:02;;;;;;;3.17;1.90;;;;;;;;;;4974136;28;20532;-53
2022/09/14 03:27:28;;;;;;;3.43;1.90;;;;;;;;;;4960190;28;20203;-54
2022/09/14 03:29:54;;;;;;;2.70;2.03;;;;;;;;;;4971095;28;20597;-53
2022/09/14 03:32:23;;;;;;;2.93;2.20;;;;;;;;;;4970767;28;20180;-54
2022/09/14 03:34:49;;;;;;;3.53;2.27;;;;;;;;;;4978805;28;21500;-53
2022/09/14 03:37:15;;;;;;;4.00;2.07;;;;;;;;;;4957654;28;20586;-53
2022/09/14 03:39:42;;;;;;;3.80;2.27;;;;;;;;;;4969732;28;20219;-54
2022/09/14 03:42:08;;;;;;;2.97;2.20;;;;;;;;;;4971303;28;20224;-53
2022/09/14 03:44:34;;;;;;;3.60;2.10;;;;;;;;;;4975683;28;20965;-54
2022/09/14 03:47:00;;;;;;;4.67;2.30;;;;;;;;;;4977153;28;20199;-54
2022/09/14 03:49:26;;;;;;;2.10;1.73;;;;;;;;;;4975400;28;20536;-54
2022/09/14 03:51:52;;;;;;;2.53;1.93;;;;;;;;;;4969380;28;20184;-53
2022/09/14 03:54:18;;;;;;;4.10;2.03;;;;;;;;;;4964390;28;20554;-54
2022/09/14 03:56:46;;;;;;;3.77;2.40;;;;;;;;;;4970749;28;20247;-53
2022/09/14 03:59:20;;;;;;;2.90;2.00;;;;;;;;;;4969802;28;20176;-54
2022/09/14 04:01:46;;;;;;;2.67;1.80;;;;;;;;;;4967368;28;20236;-54
2022/09/14 04:04:13;;;;;;;2.70;2.00;;;;;;;;;;4950574;28;20172;-54
2022/09/14 04:06:39;;;;;;;7.60;1.93;;;;;;;;;;4972917;28;20777;-54
2022/09/14 04:09:05;;;;;;;2.40;2.27;;;;;;;;;;4969186;28;20188;-54
2022/09/14 04:11:32;;;;;;;4.60;2.10;;;;;;;;;;4970206;28;20191;-54
2022/09/14 04:14:02;;;;;;;4.17;1.90;;;;;;;;;;4971206;28;20175;-54
2022/09/14 04:16:29;;;;;;;3.70;2.20;;;;;;;;;;4976122;28;20665;-54
2022/09/14 04:18:55;;;;;;;3.10;1.80;;;;;;;;;;4959979;28;20192;-54
2022/09/14 04:21:25;;;;;;;5.10;3.77;;;;;;;;;;4982471;28;20635;-53
2022/09/14 04:23:52;;;;;;;1.93;1.83;;;;;;;;;;4968429;28;20287;-53
2022/09/14 04:26:20;;;;;;;2.10;1.77;;;;;;;;;;4967596;28;20302;-54
2022/09/14 04:28:46;;;;;;;3.97;2.10;;;;;;;;;;4971268;28;20186;-53
2022/09/14 04:31:12;;;;;;;3.17;1.93;;;;;;;;;;4973505;28;20534;-53
2022/09/14 04:33:39;;;;;;;2.80;1.90;;;;;;;;;;4967566;28;20552;-54
2022/09/14 04:36:10;;;;;;;2.47;2.07;;;;;;;;;;4975105;28;20293;-53
2022/09/14 04:38:37;;;;;;;2.10;1.80;;;;;;;;;;4969178;28;20262;-52
2022/09/14 04:41:08;;;;;;;2.40;2.20;;;;;;;;;;4972010;28;20660;-53
2022/09/14 04:43:34;;;;;;;3.03;1.93;;;;;;;;;;4957779;28;20211;-53
2022/09/14 04:46:04;;;;;;;4.30;2.13;;;;;;;;;;4953954;28;20643;-54
2022/09/14 04:48:34;;;;;;;3.30;2.20;;;;;;;;;;4977520;28;20277;-52
2022/09/14 04:51:04;;;;;;;3.63;2.00;;;;;;;;;;4985124;28;20179;-53
2022/09/14 04:53:32;;;;;;;4.47;2.10;;;;;;;;;;4957773;28;20187;-53
2022/09/14 04:55:59;;;;;;;5.23;2.50;;;;;;;;;;4971675;28;20217;-53
2022/09/14 04:58:27;;;;;;;3.00;2.63;;;;;;;;;;4953034;28;20192;-54
2022/09/14 05:00:54;;;;;;;4.27;3.87;;;;;;;;;;4955770;28;20211;-53
2022/09/14 05:03:20;;;;;;;3.87;2.50;;;;;;;;;;4973547;28;20211;-52
2022/09/14 05:05:46;;;;;;;2.83;1.90;;;;;;;;;;4974850;28;20273;-53
2022/09/14 05:08:12;;;;;;;3.93;3.63;;;;;;;;;;4943977;28;20190;-52
2022/09/14 05:10:38;;;;;;;2.67;2.13;;;;;;;;;;4945892;28;20541;-53
2022/09/14 05:13:05;;;;;;;2.17;1.97;;;;;;;;;;4954841;28;20803;-53
2022/09/14 05:15:31;;;;;;;2.47;2.10;;;;;;;;;;4960839;28;20648;-54
2022/09/14 05:17:57;;;;;;;3.37;2.07;;;;;;;;;;4935956;28;20192;-54
2022/09/14 05:20:23;;;;;;;3.83;1.93;;;;;;;;;;4947019;28;20232;-53
2022/09/14 05:22:50;;;;;;;2.20;2.00;;;;;;;;;;4957560;28;20216;-53
2022/09/14 05:25:17;;;;;;;3.37;2.40;;;;;;;;;;4953951;28;20215;-53
2022/09/14 05:27:43;;;;;;;4.30;2.50;;;;;;;;;;4958203;28;20651;-54
2022/09/14 05:30:09;;;;;;;2.37;2.10;;;;;;;;;;4961989;28;20187;-52
2022/09/14 05:32:35;;;;;;;5.23;2.70;;;;;;;;;;4973089;28;20291;-54
2022/09/14 05:35:08;;;;;;;4.77;2.70;;;;;;;;;;4964983;28;20636;-52
2022/09/14 05:37:34;;;;;;;7.77;3.17;;;;;;;;;;4970333;28;20670;-52
2022/09/14 05:40:00;;;;;;;7.43;3.73;;;;;;;;;;4968685;28;20576;-52
2022/09/14 05:42:27;;;;;;;5.20;3.10;;;;;;;;;;4961945;28;20314;-52
2022/09/14 05:44:53;;;;;;;4.83;3.87;;;;;;;;;;4955005;28;20248;-52
2022/09/14 05:47:19;;;;;;;8.63;3.57;;;;;;;;;;4967413;28;20180;-52
2022/09/14 05:49:45;;;;;;;9.23;3.20;;;;;;;;;;4954556;28;20180;-52
2022/09/14 05:52:12;;;;;;;4.50;2.87;;;;;;;;;;4968819;28;20187;-52
2022/09/14 05:54:38;;;;;;;6.43;3.00;;;;;;;;;;4962908;28;20603;-53
2022/09/14 05:57:04;;;;;;;4.50;2.90;;;;;;;;;;4946806;28;20659;-52
2022/09/14 05:59:30;;;;;;;4.30;2.60;;;;;;;;;;4940819;28;20560;-52
2022/09/14 06:01:57;;;;;;;10.13;3.53;;;;;;;;;;4963747;28;20344;-53
2022/09/14 06:04:23;;;;;;;6.13;3.07;;;;;;;;;;4979114;28;20292;-52
2022/09/14 06:06:50;;;;;;;7.60;3.23;;;;;;;;;;5007098;28;20229;-53
2022/09/14 06:09:16;;;;;;;6.00;3.43;;;;;;;;;;4996623;28;20185;-52
2022/09/14 06:11:42;;;;;;;5.97;3.20;;;;;;;;;;4971381;28;20191;-52
2022/09/14 06:14:08;;;;;;;5.87;3.20;;;;;;;;;;4986575;28;20642;-52
2022/09/14 06:16:34;;;;;;;5.40;3.07;;;;;;;;;;5003900;28;20654;-52
2022/09/14 06:19:00;;;;;;;6.30;3.03;;;;;;;;;;4989118;28;20261;-52
2022/09/14 06:21:31;;;;;;;5.37;3.10;;;;;;;;;;4970567;28;20179;-53
2022/09/14 06:23:57;;;;;;;6.00;3.37;;;;;;;;;;4984528;28;20581;-52
2022/09/14 06:26:24;;;;;;;7.17;3.20;;;;;;;;;;4987238;28;20614;-52
2022/09/14 06:28:51;;;;;;;6.20;3.70;;;;;;;;;;4970891;28;20232;-53
2022/09/14 06:31:21;;;;;;;6.10;3.30;;;;;;;;;;4974114;28;20809;-53
2022/09/14 06:33:47;;;;;;;6.23;3.50;;;;;;;;;;4965037;28;20198;-53
2022/09/14 06:36:16;;;;;;;6.10;2.90;;;;;;;;;;4970014;28;20667;-52
2022/09/14 06:38:43;;;;;;;6.20;4.13;;;;;;;;;;4993258;28;20236;-52
2022/09/14 06:41:11;;;;;;;6.10;3.33;;;;;;;;;;4985795;28;20492;-53
2022/09/14 06:43:38;;;;;;;8.20;3.73;;;;;;;;;;4987072;28;20270;-52
2022/09/14 06:46:07;;;;;;;5.37;3.13;;;;;;;;;;4972732;28;20840;-51
2022/09/14 06:48:34;;;;;;;7.20;3.83;;;;;;;;;;4971324;28;20183;-52
2022/09/14 06:51:10;;;;;;;5.03;3.57;;;;;;;;;;4987212;28;20606;-52
2022/09/14 06:53:36;;;;;;;6.10;3.37;;;;;;;;;;4969316;28;20672;-52
2022/09/14 06:56:03;;;;;;;10.70;4.20;;;;;;;;;;4968779;28;20190;-53
2022/09/14 06:58:29;;;;;;;4.73;3.10;;;;;;;;;;4986244;28;20644;-53
2022/09/14 07:01:00;;;;;;;4.47;3.20;;;;;;;;;;4969371;28;20186;-54
2022/09/14 07:03:27;;;;;;;5.77;3.70;;;;;;;;;;4984793;28;20199;-53
2022/09/14 07:05:53;;;;;;;6.47;3.50;;;;;;;;;;4950797;28;20695;-53
2022/09/14 07:08:19;;;;;;;7.30;4.03;;;;;;;;;;4970474;28;20433;-52
2022/09/14 07:10:54;;;;;;;5.97;3.67;;;;;;;;;;4962641;28;20280;-53
2022/09/14 07:13:21;;;;;;;7.37;3.93;;;;;;;;;;4969872;28;20180;-52
2022/09/14 07:15:50;;;;;;;5.93;3.60;;;;;;;;;;4962950;28;20214;-52
2022/09/14 07:18:17;;;;;;;9.53;4.00;;;;;;;;;;4973136;28;20262;-53
2022/09/14 07:20:43;;;;;;;7.97;3.53;;;;;;;;;;4965730;28;20270;-52
2022/09/14 07:23:11;;;;;;;7.70;4.03;;;;;;;;;;4969069;28;20584;-52
2022/09/14 07:25:38;;;;;;;6.07;4.00;;;;;;;;;;4961719;28;20581;-53
2022/09/14 07:28:04;;;;;;;6.70;4.10;;;;;;;;;;4975774;28;20593;-51
2022/09/14 07:30:30;;;;;;;6.07;3.93;;;;;;;;;;4961959;28;20654;-51
2022/09/14 07:32:56;;;;;;;5.20;3.90;;;;;;;;;;4937243;28;20211;-52
2022/09/14 07:35:23;;;;;;;6.90;3.87;;;;;;;;;;4950986;28;20203;-52
2022/09/14 07:37:49;;;;;;;7.20;4.17;;;;;;;;;;4958419;28;20264;-51
2022/09/14 07:40:15;;;;;;;9.00;3.97;;;;;;;;;;4961837;28;20187;-51
2022/09/14 07:42:41;;;;;;;7.17;3.83;;;;;;;;;;4943892;29;20200;-51
2022/09/14 07:45:08;;;;;;;8.43;4.23;;;;;;;;;;4952059;28;20186;-51
2022/09/14 07:47:34;;;;;;;6.63;3.50;;;;;;;;;;4966528;28;20676;-51
2022/09/14 07:50:00;;;;;;;5.10;3.47;;;;;;;;;;4961418;28;20262;-51
2022/09/14 07:52:26;;;;;;;6.13;3.87;;;;;;;;;;4970762;28;20191;-51
2022/09/14 07:54:52;;;;;;;7.83;3.70;;;;;;;;;;4985014;28;20186;-53
2022/09/14 07:57:19;;;;;;;4.97;3.50;;;;;;;;;;4972400;28;20188;-51
2022/09/14 07:59:45;;;;;;;6.47;3.80;;;;;;;;;;4932917;28;20202;-53
2022/09/14 08:02:12;;;;;;;5.80;3.90;;;;;;;;;;4966532;28;20211;-53
2022/09/14 08:04:38;;;;;;;6.70;3.83;;;;;;;;;;4965946;28;20262;-51
2022/09/14 08:07:05;;;;;;;5.97;3.93;;;;;;;;;;4961635;28;20323;-53
2022/09/14 08:09:31;;;;;;;4.90;3.50;;;;;;;;;;4968127;28;20651;-53
2022/09/14 08:11:57;;;;;;;6.80;3.70;;;;;;;;;;4969527;28;20183;-51
2022/09/14 08:14:23;;;;;;;6.50;3.50;;;;;;;;;;4968503;28;20176;-52
2022/09/14 08:16:49;;;;;;;5.60;3.57;;;;;;;;;;4959594;28;20190;-53
2022/09/14 08:19:18;;;;;;;4.47;3.23;;;;;;;;;;4953094;28;20230;-52
2022/09/14 08:21:45;;;;;;;6.90;3.70;;;;;;;;;;4944331;29;20374;-51
2022/09/14 08:24:12;;;;;;;5.83;3.57;;;;;;;;;;4934514;28;20539;-52
2022/09/14 08:26:39;;;;;;;6.03;3.47;;;;;;;;;;4969469;28;20218;-52
2022/09/14 08:29:06;;;;;;;5.83;3.80;;;;;;;;;;4960923;28;20194;-52
2022/09/14 08:31:36;;;;;;;4.30;3.30;;;;;;;;;;4963807;28;20212;-53
2022/09/14 08:34:03;;;;;;;5.50;3.20;;;;;;;;;;4979413;28;20222;-51
2022/09/14 08:36:32;;;;;;;4.53;3.23;;;;;;;;;;4968906;28;20161;-51
2022/09/14 08:38:59;;;;;;;7.00;3.33;;;;;;;;;;4953797;28;20190;-53
2022/09/14 08:41:32;;;;;;;4.20;2.83;;;;;;;;;;4950558;28;20190;-53
2022/09/14 08:44:21;;;;;;;5.13;2.97;;;;;;;;;;4952624;28;20227;-53
2022/09/14 08:46:50;;;;;;;5.23;2.93;;;;;;;;;;4943797;28;20191;-52
2022/09/14 08:49:22;;;;;;;4.13;2.70;;;;;;;;;;4966423;28;20704;-52
2022/09/14 08:51:50;;;;;;;5.77;2.80;;;;;;;;;;4950796;28;20224;-53
2022/09/14 08:54:17;;;;;;;6.27;3.10;;;;;;;;;;4966437;28;20217;-52
2022/09/14 08:56:45;;;;;;;10.33;2.83;;;;;;;;;;4968176;28;20199;-52
2022/09/14 08:59:31;;;;;;;3.07;2.40;;;;;;;;;;4950468;28;20195;-52
2022/09/14 09:02:18;;;;;;;4.80;2.37;;;;;;;;;;4971517;28;20227;-51
2022/09/14 09:04:56;;;;;;;3.03;2.33;;;;;;;;;;4970683;28;20207;-52
2022/09/14 09:07:30;;;;;;;5.50;2.63;;;;;;;;;;4989958;28;20215;-52
2022/09/14 09:09:57;;;;;;;6.80;3.10;;;;;;;;;;4977933;28;20234;-55
2022/09/14 09:12:43;;;;;;;3.27;2.47;;;;;;;;;;4989349;28;20179;-53
2022/09/14 09:15:15;;;;;;;6.70;2.80;;;;;;;;;;4995635;28;20183;-53
2022/09/14 09:17:52;;;;;;;3.37;2.40;;;;;;;;;;5003852;28;20184;-52
2022/09/14 09:20:23;;;;;;;4.17;2.80;;;;;;;;;;4969918;28;20527;-51
2022/09/14 09:23:11;;;;;;;5.60;3.37;;;;;;;;;;4987344;28;20570;-52
2022/09/14 09:25:46;;;;;;;2.77;2.50;;;;;;;;;;4976416;28;20279;-52
2022/09/14 09:28:12;;;;;;;4.37;2.83;;;;;;;;;;4992770;28;20177;-52
2022/09/14 09:30:40;;;;;;;3.67;2.80;;;;;;;;;;4985730;28;20661;-53
2022/09/14 09:33:07;;;;;;;5.37;2.90;;;;;;;;;;4972474;28;20264;-52
2022/09/14 09:35:33;;;;;;;3.17;2.70;;;;;;;;;;4987750;28;20278;-53
2022/09/14 09:37:59;;;;;;;4.43;2.93;;;;;;;;;;4994714;28;20185;-51
2022/09/14 09:40:30;;;;;;;3.27;2.77;;;;;;;;;;4992094;28;20228;-52
2022/09/14 09:43:10;;;;;;;6.17;3.60;;;;;;;;;;4973019;28;20665;-52
2022/09/14 09:45:48;;;;;;;3.83;2.97;;;;;;;;;;4974542;28;20182;-53
2022/09/14 09:48:15;;;;;;;5.23;2.97;;;;;;;;;;4971549;28;20619;-52
2022/09/14 09:50:58;;;;;;;5.50;3.00;;;;;;;;;;4973679;28;20196;-51
2022/09/14 09:53:24;;;;;;;5.60;3.27;;;;;;;;;;4995216;28;20187;-51
2022/09/14 09:55:50;;;;;;;5.13;3.17;;;;;;;;;;4972841;28;20228;-52
2022/09/14 09:58:28;;;;;;;6.63;3.50;;;;;;;;;;4972607;28;20209;-53
2022/09/14 10:00:56;;;;;;;5.33;3.47;;;;;;;;;;4991366;28;20641;-52
2022/09/14 10:03:33;;;;;;;4.17;2.60;;;;;;;;;;4987577;28;20301;-51
2022/09/14 10:06:01;;;;;;;5.13;3.30;;;;;;;;;;4988152;28;20394;-52
2022/09/14 10:08:33;;;;;;;5.20;3.23;;;;;;;;;;4967837;28;20216;-52
2022/09/14 10:11:00;;;;;;;3.50;2.63;;;;;;;;;;4968547;28;20195;-51
2022/09/14 10:13:34;;;;;;;4.60;3.57;;;;;;;;;;4961999;28;20199;-52
2022/09/14 10:16:16;;;;;;;5.23;2.80;;;;;;;;;;4951436;28;20188;-52
2022/09/14 10:18:50;;;;;;;4.47;3.27;;;;;;;;;;4955398;28;20179;-51
2022/09/14 10:21:17;;;;;;;4.17;3.50;;;;;;;;;;4968085;28;20713;-52
2022/09/14 10:23:43;;;;;;;6.70;2.97;;;;;;;;;;4967603;28;20210;-52
2022/09/14 10:26:09;;;;;;;7.07;3.10;;;;;;;;;;4969701;28;20216;-52
2022/09/14 10:28:36;;;;;;;5.10;2.90;;;;;;;;;;4969607;28;20274;-52
2022/09/14 10:31:06;;;;;;;5.47;3.20;;;;;;;;;;4952695;28;20661;-52
2022/09/14 10:33:32;;;;;;;4.67;3.27;;;;;;;;;;4952849;28;20260;-52
2022/09/14 10:36:01;;;;;;;5.33;3.17;;;;;;;;;;4969967;28;20180;-53
2022/09/14 10:38:42;;;;;;;5.60;3.40;;;;;;;;;;4971271;28;20263;-52
2022/09/14 10:41:13;;;;;;;4.90;3.60;;;;;;;;;;4956940;28;20190;-52
2022/09/14 10:43:58;;;;;;;5.13;3.70;;;;;;;;;;4936269;28;20262;-52
2022/09/14 10:46:29;;;;;;;4.93;4.30;;;;;;;;;;4970257;28;20258;-52
2022/09/14 10:49:05;;;;;;;5.00;3.60;;;;;;;;;;4952821;28;20183;-53
2022/09/14 10:51:41;;;;;;;3.80;3.17;;;;;;;;;;4968808;28;20182;-53
2022/09/14 10:54:15;;;;;;;5.13;3.27;;;;;;;;;;4969295;28;20294;-52
2022/09/14 10:56:55;;;;;;;4.67;3.00;;;;;;;;;;4942123;28;20198;-53
2022/09/14 10:59:28;;;;;;;5.53;3.60;;;;;;;;;;4948367;28;20192;-53
2022/09/14 11:02:00;;;;;;;7.90;3.87;;;;;;;;;;4967958;28;20190;-51
2022/09/14 11:04:29;;;;;;;5.50;3.70;;;;;;;;;;4969805;28;20186;-53
2022/09/14 11:07:02;;;;;;;5.77;3.60;;;;;;;;;;4957135;28;20772;-51
2022/09/14 11:09:33;;;;;;;6.97;3.47;;;;;;;;;;4978064;28;20203;-51
2022/09/14 11:12:05;;;;;;;4.43;3.80;;;;;;;;;;4949538;28;20179;-51
2022/09/14 11:14:40;;;;;;;6.57;4.33;;;;;;;;;;4944223;28;20187;-51
2022/09/14 11:17:19;;;;;;;4.83;3.80;;;;;;;;;;4949449;28;20192;-52
2022/09/14 11:20:12;;;;;;;5.23;4.73;;;;;;;;;;4946415;28;20239;-51
2022/09/14 11:22:50;;;;;;;6.37;4.40;;;;;;;;;;4962782;28;20213;-52
2022/09/14 11:25:42;;;;;;;5.83;4.70;;;;;;;;;;4924171;28;20177;-52
2022/09/14 11:28:16;;;;;;;10.40;5.33;;;;;;;;;;4959488;28;20197;-52
2022/09/14 11:30:45;;;;;;;7.33;5.37;;;;;;;;;;4938713;28;20181;-52
2022/09/14 11:33:16;;;;;;;5.83;5.13;;;;;;;;;;4953720;28;20634;-52
2022/09/14 11:35:49;;;;;;;8.67;5.77;;;;;;;;;;4942882;28;20222;-52
2022/09/14 11:38:19;;;;;;;6.43;5.47;;;;;;;;;;4964306;28;20183;-51
2022/09/14 11:40:45;;;;;;;6.30;5.00;;;;;;;;;;4950170;28;20183;-53
2022/09/14 11:43:17;;;;;;;6.47;5.70;;;;;;;;;;4965861;28;20615;-52
2022/09/14 11:45:49;;;;;;;6.77;4.80;;;;;;;;;;4965270;28;20534;-52
2022/09/14 11:48:20;;;;;;;5.77;4.93;;;;;;;;;;4976022;28;20199;-52
2022/09/14 11:50:50;;;;;;;6.87;5.17;;;;;;;;;;4959808;28;20184;-54
2022/09/14 11:53:16;;;;;;;5.60;5.10;;;;;;;;;;4953661;28;20202;-51
2022/09/14 11:55:49;;;;;;;8.40;5.63;;;;;;;;;;4961636;28;20271;-53
2022/09/14 11:58:26;;;;;;;6.53;4.90;;;;;;;;;;4954449;28;20184;-51
2022/09/14 12:00:52;;;;;;;7.20;4.90;;;;;;;;;;4953184;28;20199;-53
2022/09/14 12:03:20;;;;;;;6.63;5.03;;;;;;;;;;4974783;28;20570;-53
2022/09/14 12:05:47;;;;;;;11.43;6.27;;;;;;;;;;4947892;28;20208;-52
2022/09/14 12:08:32;;;;;;;9.50;5.80;;;;;;;;;;4963937;28;20238;-52
2022/09/14 12:11:04;;;;;;;7.80;4.73;;;;;;;;;;4956723;28;20187;-52
2022/09/14 12:13:30;;;;;;;5.77;4.50;;;;;;;;;;4967308;28;20270;-52
2022/09/14 12:16:09;;;;;;;5.17;4.30;;;;;;;;;;4972172;28;20717;-53
2022/09/14 12:18:36;;;;;;;4.27;3.37;;;;;;;;;;4968070;28;20179;-53
2022/09/14 12:21:02;;;;;;;6.13;3.13;;;;;;;;;;4965654;28;20285;-51
2022/09/14 12:23:37;;;;;;;3.27;2.30;;;;;;;;;;4959541;28;20214;-52
2022/09/14 12:26:04;;;;;;;2.90;2.70;;;;;;;;;;4963734;28;20230;-53
2022/09/14 12:28:39;;;;;;;5.90;2.97;;;;;;;;;;4951219;28;20251;-53
2022/09/14 12:31:05;;;;;;;2.33;2.03;;;;;;;;;;4956918;28;20185;-53
2022/09/14 12:33:32;;;;;;;2.50;2.30;;;;;;;;;;4952440;28;20192;-52
2022/09/14 12:36:01;;;;;;;4.83;2.13;;;;;;;;;;4957316;28;20597;-52
2022/09/14 12:38:30;;;;;;;2.73;2.53;;;;;;;;;;4958382;28;20482;-52
2022/09/14 12:40:59;;;;;;;2.43;2.23;;;;;;;;;;4964827;28;20268;-53
2022/09/14 12:43:32;;;;;;;3.30;2.03;;;;;;;;;;4985824;28;20207;-53
2022/09/14 12:46:09;;;;;;;3.53;2.30;;;;;;;;;;4965344;28;20185;-52
2022/09/14 12:48:47;;;;;;;4.43;2.30;;;;;;;;;;4964085;28;20501;-53
2022/09/14 12:53:59;;;;;;;2.33;1.73;;;;;;;;;;4969992;28;20201;-53
2022/09/14 12:56:45;;;;;;;3.63;1.80;;;;;;;;;;4971762;28;20198;-53
2022/09/14 12:59:20;;;;;;;2.57;2.37;;;;;;;;;;4968487;28;20202;-52
2022/09/14 13:01:59;;;;;;;3.60;2.20;;;;;;;;;;4984327;28;20536;-52
2022/09/14 13:04:27;;;;;;;4.57;1.90;;;;;;;;;;4961414;28;20216;-52
2022/09/14 13:06:55;;;;;;;2.67;1.90;;;;;;;;;;4968099;28;20300;-53
2022/09/14 13:09:23;;;;;;;2.13;1.93;;;;;;;;;;4980637;28;20190;-52
2022/09/14 13:11:55;;;;;;;2.07;1.87;;;;;;;;;;4990607;28;20254;-52
2022/09/14 13:14:23;;;;;;;2.63;2.07;;;;;;;;;;4973268;28;20191;-52
2022/09/14 13:16:51;;;;;;;2.70;2.40;;;;;;;;;;4991109;28;20177;-52
2022/09/14 13:19:22;;;;;;;3.03;2.37;;;;;;;;;;4964752;28;20180;-52
2022/09/14 13:21:51;;;;;;;3.13;2.20;;;;;;;;;;4987279;28;20262;-53
2022/09/14 13:24:22;;;;;;;3.27;2.37;;;;;;;;;;4992411;28;20199;-52
2022/09/14 13:26:48;;;;;;;5.83;2.67;;;;;;;;;;4959959;28;20668;-53
2022/09/14 13:29:15;;;;;;;2.87;2.03;;;;;;;;;;4964768;28;20171;-51
2022/09/14 13:31:43;;;;;;;4.80;2.23;;;;;;;;;;4968007;28;20260;-51
2022/09/14 13:34:18;;;;;;;2.07;1.90;;;;;;;;;;4946630;28;20275;-52
2022/09/14 13:36:44;;;;;;;2.37;2.00;;;;;;;;;;4981662;28;20183;-52
2022/09/14 13:39:13;;;;;;;2.33;2.10;;;;;;;;;;4960119;28;20187;-52
2022/09/14 13:41:42;;;;;;;1.60;1.50;;;;;;;;;;4976778;28;20183;-52
2022/09/14 13:44:08;;;;;;;2.07;1.97;;;;;;;;;;4957607;28;20207;-53
2022/09/14 13:46:36;;;;;;;2.10;1.80;;;;;;;;;;4983840;28;20694;-52
2022/09/14 13:49:02;;;;;;;2.23;1.73;;;;;;;;;;4986595;28;20625;-52
2022/09/14 13:51:28;;;;;;;1.97;1.80;;;;;;;;;;4992757;28;20176;-52
2022/09/14 13:53:56;;;;;;;1.77;1.67;;;;;;;;;;4989362;28;20184;-53
2022/09/14 13:56:25;;;;;;;1.83;1.67;;;;;;;;;;4982351;28;20172;-51
2022/09/14 13:59:18;;;;;;;2.87;1.80;;;;;;;;;;4975587;28;20179;-51
2022/09/14 14:01:55;;;;;;;3.17;2.90;;;;;;;;;;4959376;28;20674;-52
2022/09/14 14:04:25;;;;;;;3.37;2.00;;;;;;;;;;4971145;28;20207;-51
2022/09/14 14:07:10;;;;;;;3.30;1.83;;;;;;;;;;4957948;28;20227;-53
2022/09/14 14:09:49;;;;;;;1.97;1.73;;;;;;;;;;4960035;28;20179;-52
2022/09/14 14:12:36;;;;;;;2.20;1.93;;;;;;;;;;4959948;28;20184;-53
2022/09/14 14:15:22;;;;;;;3.83;2.17;;;;;;;;;;4975519;28;20186;-53
2022/09/14 14:17:48;;;;;;;4.33;2.30;;;;;;;;;;4966764;28;20187;-51
2022/09/14 14:20:23;;;;;;;2.60;2.10;;;;;;;;;;4976075;28;20583;-53
2022/09/14 14:22:57;;;;;;;5.10;2.33;;;;;;;;;;4969388;28;20459;-52
2022/09/14 14:25:43;;;;;;;3.90;2.50;;;;;;;;;;4981499;28;20426;-51
2022/09/14 14:28:17;;;;;;;5.17;2.00;;;;;;;;;;4975182;28;22140;-53
2022/09/14 14:30:44;;;;;;;2.60;2.40;;;;;;;;;;4971223;28;20656;-53
2022/09/14 14:33:15;;;;;;;3.73;3.43;;;;;;;;;;4973329;28;20604;-53
2022/09/14 14:35:41;;;;;;;2.83;2.63;;;;;;;;;;4983011;28;20174;-52
2022/09/14 14:38:08;;;;;;;3.60;2.60;;;;;;;;;;4970943;28;20181;-53
2022/09/14 14:40:34;;;;;;;2.63;2.40;;;;;;;;;;4972482;28;20495;-52
2022/09/14 14:43:03;;;;;;;2.40;2.20;;;;;;;;;;4976184;28;20759;-52
2022/09/14 14:45:30;;;;;;;3.93;2.40;;;;;;;;;;4970246;28;20181;-52
2022/09/14 14:47:57;;;;;;;3.40;2.33;;;;;;;;;;4968753;28;20239;-51
2022/09/14 14:50:25;;;;;;;7.30;3.23;;;;;;;;;;4941240;28;20650;-52
2022/09/14 14:52:52;;;;;;;4.37;2.53;;;;;;;;;;4970763;28;20230;-52
2022/09/14 14:55:22;;;;;;;2.67;2.47;;;;;;;;;;4974178;28;20542;-53
2022/09/14 14:57:49;;;;;;;5.53;2.20;;;;;;;;;;4970047;28;20184;-51
2022/09/14 15:00:20;;;;;;;2.70;2.47;;;;;;;;;;4979746;28;20208;-53